createdAt,value
2017-09-16T00:00:28.840Z,15.23
2017-09-16T00:01:09.394Z,15.32
2017-09-16T00:01:49.966Z,15.19
2017-09-16T00:02:30.533Z,15.32
2017-09-16T00:03:11.113Z,15.29
2017-09-16T00:03:51.673Z,15.28
2017-09-16T00:04:32.238Z,15.2
2017-09-16T00:05:12.796Z,15.25
2017-09-16T00:05:53.368Z,15.19
2017-09-16T00:06:33.924Z,15.14
2017-09-16T00:07:14.492Z,15.14
2017-09-16T00:07:55.069Z,15.17
2017-09-16T00:08:35.624Z,15.21
2017-09-16T00:09:16.191Z,15.2
2017-09-16T00:09:56.752Z,15.23
2017-09-16T00:10:37.302Z,15.25
2017-09-16T00:11:17.865Z,15.23
2017-09-16T00:11:58.419Z,15.2
2017-09-16T00:12:38.987Z,15.2
2017-09-16T00:13:19.572Z,15.27
2017-09-16T00:14:00.136Z,15.19
2017-09-16T00:14:40.684Z,15.31
2017-09-16T00:15:21.249Z,15.19
2017-09-16T00:16:01.824Z,15.28
2017-09-16T00:16:42.388Z,15.25
2017-09-16T00:17:22.947Z,15.27
2017-09-16T00:18:03.510Z,15.16
2017-09-16T00:18:44.063Z,15.14
2017-09-16T00:19:24.635Z,15.27
2017-09-16T00:20:05.182Z,15.23
2017-09-16T00:20:45.746Z,15.25
2017-09-16T00:21:26.330Z,15.19
2017-09-16T00:22:06.892Z,15.13
2017-09-16T00:22:47.460Z,15.01
2017-09-16T00:23:28.024Z,15.2
2017-09-16T00:24:08.591Z,15.21
2017-09-16T00:24:49.152Z,15.16
2017-09-16T00:25:29.718Z,15.14
2017-09-16T00:26:10.280Z,15.01
2017-09-16T00:26:50.838Z,15.1
2017-09-16T00:27:31.411Z,15.07
2017-09-16T00:28:11.957Z,15.16
2017-09-16T00:28:52.524Z,15.11
2017-09-16T00:29:33.084Z,15.17
2017-09-16T00:30:13.650Z,15.06
2017-09-16T00:30:54.230Z,15.2
2017-09-16T00:31:34.768Z,15.16
2017-09-16T00:32:15.330Z,15.07
2017-09-16T00:32:55.898Z,15.11
2017-09-16T00:33:36.462Z,15.16
2017-09-16T00:34:17.029Z,15.09
2017-09-16T00:34:57.601Z,15.03
2017-09-16T00:35:38.167Z,15.01
2017-09-16T00:36:18.716Z,15.06
2017-09-16T00:36:59.284Z,15.09
2017-09-16T00:37:39.855Z,15.09
2017-09-16T00:38:20.425Z,15.07
2017-09-16T00:39:00.964Z,15.09
2017-09-16T00:39:41.520Z,15.09
2017-09-16T00:40:22.078Z,15.07
2017-09-16T00:41:02.664Z,15.06
2017-09-16T00:41:43.231Z,15.03
2017-09-16T00:42:23.799Z,15.01
2017-09-16T00:43:04.364Z,15.03
2017-09-16T00:43:44.920Z,15.03
2017-09-16T00:44:25.484Z,15.06
2017-09-16T00:45:06.055Z,15.07
2017-09-16T00:45:46.627Z,15.09
2017-09-16T00:46:27.176Z,15.06
2017-09-16T00:47:07.735Z,15.11
2017-09-16T00:47:48.293Z,15.09
2017-09-16T00:48:28.861Z,15.06
2017-09-16T00:49:09.409Z,15.07
2017-09-16T00:49:49.976Z,15.06
2017-09-16T00:50:30.589Z,15.03
2017-09-16T00:51:11.144Z,15.01
2017-09-16T00:51:51.686Z,15.02
2017-09-16T00:52:32.246Z,15.11
2017-09-16T00:53:12.805Z,15.09
2017-09-16T00:53:53.377Z,15.01
2017-09-16T00:54:33.948Z,15.09
2017-09-16T00:55:14.502Z,15.06
2017-09-16T00:55:55.071Z,14.95
2017-09-16T00:56:35.638Z,14.91
2017-09-16T00:57:16.211Z,14.91
2017-09-16T00:57:56.785Z,14.89
2017-09-16T00:58:37.340Z,14.94
2017-09-16T00:59:17.904Z,14.94
2017-09-16T00:59:58.478Z,14.86
2017-09-16T01:00:39.058Z,14.98
2017-09-16T01:01:19.601Z,15.06
2017-09-16T01:02:00.152Z,15.01
2017-09-16T01:02:40.727Z,14.98
2017-09-16T01:03:21.287Z,14.94
2017-09-16T01:04:01.833Z,15.01
2017-09-16T01:04:42.401Z,15.03
2017-09-16T01:05:22.967Z,15.03
2017-09-16T01:06:03.518Z,14.96
2017-09-16T01:06:44.076Z,14.95
2017-09-16T01:07:24.632Z,15.07
2017-09-16T01:08:05.194Z,15.06
2017-09-16T01:08:45.771Z,14.96
2017-09-16T01:09:26.312Z,15.02
2017-09-16T01:10:06.901Z,14.91
2017-09-16T01:10:47.467Z,15.01
2017-09-16T01:11:28.034Z,15.03
2017-09-16T01:12:08.605Z,14.94
2017-09-16T01:12:49.177Z,14.89
2017-09-16T01:13:29.722Z,14.86
2017-09-16T01:14:10.285Z,14.96
2017-09-16T01:14:50.840Z,15.01
2017-09-16T01:15:31.425Z,15.07
2017-09-16T01:16:11.988Z,14.99
2017-09-16T01:16:52.537Z,15.03
2017-09-16T01:17:33.126Z,14.92
2017-09-16T01:18:13.676Z,15.02
2017-09-16T01:18:54.238Z,14.89
2017-09-16T01:19:34.798Z,14.95
2017-09-16T01:20:15.365Z,14.86
2017-09-16T01:20:55.916Z,14.77
2017-09-16T01:21:36.487Z,14.88
2017-09-16T01:22:17.058Z,14.84
2017-09-16T01:22:57.627Z,14.86
2017-09-16T01:23:38.189Z,14.94
2017-09-16T01:24:18.744Z,14.91
2017-09-16T01:24:59.307Z,14.92
2017-09-16T01:25:39.878Z,14.88
2017-09-16T01:26:20.451Z,14.91
2017-09-16T01:27:01.019Z,14.88
2017-09-16T01:27:41.583Z,14.83
2017-09-16T01:28:22.144Z,14.77
2017-09-16T01:29:02.708Z,14.78
2017-09-16T01:29:43.270Z,14.84
2017-09-16T01:30:23.828Z,14.96
2017-09-16T01:31:04.387Z,14.83
2017-09-16T01:31:44.953Z,14.96
2017-09-16T01:32:25.525Z,14.86
2017-09-16T01:33:06.092Z,14.89
2017-09-16T01:33:46.651Z,14.91
2017-09-16T01:34:27.220Z,14.91
2017-09-16T01:35:07.778Z,14.98
2017-09-16T01:35:48.340Z,14.88
2017-09-16T01:36:28.890Z,14.94
2017-09-16T01:37:09.464Z,14.91
2017-09-16T01:37:50.032Z,14.92
2017-09-16T01:38:30.588Z,14.88
2017-09-16T01:39:11.153Z,14.94
2017-09-16T01:39:51.722Z,14.84
2017-09-16T01:40:32.283Z,14.77
2017-09-16T01:41:12.850Z,14.84
2017-09-16T01:41:53.411Z,14.77
2017-09-16T01:42:33.974Z,14.8
2017-09-16T01:43:14.530Z,14.78
2017-09-16T01:43:55.086Z,14.81
2017-09-16T01:44:35.642Z,14.77
2017-09-16T01:45:16.195Z,14.78
2017-09-16T01:45:56.769Z,14.77
2017-09-16T01:46:37.331Z,14.75
2017-09-16T01:47:17.880Z,14.81
2017-09-16T01:47:58.447Z,14.77
2017-09-16T01:48:39.014Z,14.77
2017-09-16T01:49:19.566Z,14.75
2017-09-16T01:50:00.116Z,14.77
2017-09-16T01:50:40.676Z,14.8
2017-09-16T01:51:21.245Z,14.81
2017-09-16T01:52:01.804Z,14.84
2017-09-16T01:52:42.370Z,14.81
2017-09-16T01:53:22.928Z,14.91
2017-09-16T01:54:03.484Z,14.84
2017-09-16T01:54:44.046Z,14.81
2017-09-16T01:55:24.603Z,14.88
2017-09-16T01:56:05.172Z,14.8
2017-09-16T01:56:45.730Z,14.73
2017-09-16T01:57:26.286Z,14.75
2017-09-16T01:58:06.840Z,14.77
2017-09-16T01:58:47.410Z,14.75
2017-09-16T01:59:27.960Z,14.81
2017-09-16T02:00:08.521Z,14.77
2017-09-16T02:00:49.093Z,14.75
2017-09-16T02:01:29.666Z,14.8
2017-09-16T02:02:10.233Z,14.83
2017-09-16T02:02:50.798Z,14.81
2017-09-16T02:03:31.354Z,14.78
2017-09-16T02:04:11.914Z,14.86
2017-09-16T02:04:52.473Z,14.81
2017-09-16T02:05:33.042Z,14.8
2017-09-16T02:06:13.626Z,14.81
2017-09-16T02:06:54.182Z,14.73
2017-09-16T02:07:34.749Z,14.7
2017-09-16T02:08:15.296Z,14.77
2017-09-16T02:08:55.862Z,14.8
2017-09-16T02:09:36.417Z,14.81
2017-09-16T02:10:16.975Z,14.8
2017-09-16T02:10:57.536Z,14.77
2017-09-16T02:11:38.102Z,14.64
2017-09-16T02:12:18.697Z,14.7
2017-09-16T02:12:59.244Z,14.75
2017-09-16T02:13:39.805Z,14.83
2017-09-16T02:14:20.368Z,14.8
2017-09-16T02:15:00.929Z,14.72
2017-09-16T02:15:41.501Z,14.73
2017-09-16T02:16:22.059Z,14.75
2017-09-16T02:17:02.625Z,14.77
2017-09-16T02:17:43.200Z,14.69
2017-09-16T02:18:23.743Z,14.73
2017-09-16T02:19:04.324Z,14.73
2017-09-16T02:19:44.863Z,14.69
2017-09-16T02:20:25.431Z,14.72
2017-09-16T02:21:05.983Z,14.77
2017-09-16T02:21:46.537Z,14.69
2017-09-16T02:22:27.115Z,14.61
2017-09-16T02:23:07.688Z,14.68
2017-09-16T02:23:48.244Z,14.64
2017-09-16T02:24:28.786Z,14.6
2017-09-16T02:25:09.345Z,14.6
2017-09-16T02:25:49.908Z,14.61
2017-09-16T02:26:30.482Z,14.6
2017-09-16T02:27:11.036Z,14.78
2017-09-16T02:27:52.350Z,14.77
2017-09-16T02:28:32.166Z,14.7
2017-09-16T02:29:12.735Z,14.61
2017-09-16T02:29:53.286Z,14.58
2017-09-16T02:30:33.848Z,14.61
2017-09-16T02:31:14.406Z,14.52
2017-09-16T02:31:54.992Z,14.5
2017-09-16T02:32:35.535Z,14.47
2017-09-16T02:33:16.093Z,14.51
2017-09-16T02:33:56.651Z,14.51
2017-09-16T02:34:37.212Z,14.57
2017-09-16T02:35:17.771Z,14.62
2017-09-16T02:35:58.338Z,14.57
2017-09-16T02:36:38.911Z,14.52
2017-09-16T02:37:19.474Z,14.45
2017-09-16T02:38:00.043Z,14.51
2017-09-16T02:38:40.610Z,14.52
2017-09-16T02:39:21.174Z,14.5
2017-09-16T02:40:01.734Z,14.54
2017-09-16T02:40:42.302Z,14.6
2017-09-16T02:41:22.858Z,14.6
2017-09-16T02:42:03.423Z,14.64
2017-09-16T02:42:43.976Z,14.6
2017-09-16T02:43:24.534Z,14.54
2017-09-16T02:44:05.102Z,14.61
2017-09-16T02:44:45.662Z,14.54
2017-09-16T02:45:26.229Z,14.52
2017-09-16T02:46:06.791Z,14.51
2017-09-16T02:46:47.358Z,14.47
2017-09-16T02:47:27.912Z,14.43
2017-09-16T02:48:08.466Z,14.47
2017-09-16T02:48:49.014Z,14.52
2017-09-16T02:49:29.583Z,14.47
2017-09-16T02:50:10.137Z,14.43
2017-09-16T02:50:50.689Z,14.35
2017-09-16T02:51:31.247Z,14.37
2017-09-16T02:52:11.802Z,14.5
2017-09-16T02:52:52.365Z,14.42
2017-09-16T02:53:32.932Z,14.5
2017-09-16T02:54:13.500Z,14.45
2017-09-16T02:54:54.062Z,14.5
2017-09-16T02:55:34.642Z,14.46
2017-09-16T02:56:15.218Z,14.5
2017-09-16T02:56:55.778Z,14.61
2017-09-16T02:57:36.318Z,14.5
2017-09-16T02:58:16.873Z,14.51
2017-09-16T02:58:57.437Z,14.45
2017-09-16T02:59:37.984Z,14.55
2017-09-16T03:00:18.553Z,14.62
2017-09-16T03:00:59.102Z,14.45
2017-09-16T03:01:39.669Z,14.55
2017-09-16T03:02:20.230Z,14.55
2017-09-16T03:03:00.795Z,14.61
2017-09-16T03:03:41.344Z,14.46
2017-09-16T03:04:21.906Z,14.54
2017-09-16T03:05:02.468Z,14.52
2017-09-16T03:05:43.028Z,14.58
2017-09-16T03:06:23.578Z,14.57
2017-09-16T03:07:04.119Z,14.6
2017-09-16T03:07:44.692Z,14.58
2017-09-16T03:08:25.248Z,14.58
2017-09-16T03:09:05.809Z,14.57
2017-09-16T03:09:46.373Z,14.5
2017-09-16T03:10:26.931Z,14.55
2017-09-16T03:11:07.497Z,14.47
2017-09-16T03:11:48.068Z,14.54
2017-09-16T03:12:28.621Z,14.5
2017-09-16T03:13:09.164Z,14.52
2017-09-16T03:13:49.719Z,14.46
2017-09-16T03:14:30.273Z,14.47
2017-09-16T03:15:10.834Z,14.46
2017-09-16T03:15:51.391Z,14.51
2017-09-16T03:16:31.964Z,14.57
2017-09-16T03:17:12.530Z,14.45
2017-09-16T03:17:53.089Z,14.47
2017-09-16T03:18:33.656Z,14.54
2017-09-16T03:19:14.203Z,14.5
2017-09-16T03:19:54.753Z,14.47
2017-09-16T03:20:35.321Z,14.42
2017-09-16T03:21:15.881Z,14.37
2017-09-16T03:21:56.445Z,14.36
2017-09-16T03:22:37.011Z,14.37
2017-09-16T03:23:17.561Z,14.42
2017-09-16T03:23:58.136Z,14.33
2017-09-16T03:24:38.707Z,14.4
2017-09-16T03:25:19.265Z,14.36
2017-09-16T03:25:59.829Z,14.39
2017-09-16T03:26:40.378Z,14.42
2017-09-16T03:27:20.942Z,14.39
2017-09-16T03:28:01.500Z,14.37
2017-09-16T03:28:42.056Z,14.27
2017-09-16T03:29:22.625Z,14.37
2017-09-16T03:30:03.197Z,14.36
2017-09-16T03:30:43.771Z,14.42
2017-09-16T03:31:24.343Z,14.39
2017-09-16T03:32:04.900Z,14.36
2017-09-16T03:32:45.464Z,14.4
2017-09-16T03:33:26.012Z,14.27
2017-09-16T03:34:06.603Z,14.27
2017-09-16T03:34:47.193Z,14.27
2017-09-16T03:35:27.743Z,14.36
2017-09-16T03:36:08.311Z,14.37
2017-09-16T03:36:48.861Z,14.42
2017-09-16T03:37:29.416Z,14.39
2017-09-16T03:38:09.986Z,14.27
2017-09-16T03:38:50.544Z,14.36
2017-09-16T03:39:31.109Z,14.24
2017-09-16T03:40:11.704Z,14.36
2017-09-16T03:40:52.242Z,14.33
2017-09-16T03:41:32.791Z,14.27
2017-09-16T03:42:13.367Z,14.25
2017-09-16T03:42:53.918Z,14.32
2017-09-16T03:43:34.475Z,14.27
2017-09-16T03:44:15.030Z,14.28
2017-09-16T03:44:55.597Z,14.12
2017-09-16T03:45:36.143Z,14.15
2017-09-16T03:46:16.719Z,14.22
2017-09-16T03:46:57.278Z,14.24
2017-09-16T03:47:37.830Z,14.27
2017-09-16T03:48:18.382Z,14.21
2017-09-16T03:48:58.959Z,14.24
2017-09-16T03:49:39.511Z,14.24
2017-09-16T03:50:20.074Z,14.24
2017-09-16T03:51:00.610Z,14.29
2017-09-16T03:51:41.179Z,14.27
2017-09-16T03:52:21.737Z,14.17
2017-09-16T03:53:02.295Z,14.2
2017-09-16T03:53:42.834Z,14.21
2017-09-16T03:54:23.383Z,14.28
2017-09-16T03:55:03.919Z,14.15
2017-09-16T03:55:44.461Z,14.32
2017-09-16T03:56:25.021Z,14.28
2017-09-16T03:57:05.581Z,14.15
2017-09-16T03:57:46.131Z,14.2
2017-09-16T03:58:26.696Z,14.2
2017-09-16T03:59:07.243Z,14.18
2017-09-16T03:59:47.786Z,14.29
2017-09-16T04:00:28.336Z,14.18
2017-09-16T04:01:08.880Z,14.28
2017-09-16T04:01:49.436Z,14.2
2017-09-16T04:02:29.985Z,14.17
2017-09-16T04:03:10.538Z,14.18
2017-09-16T04:03:51.090Z,14.17
2017-09-16T04:04:31.645Z,14.32
2017-09-16T04:05:12.189Z,14.28
2017-09-16T04:05:52.739Z,14.29
2017-09-16T04:06:33.309Z,14.18
2017-09-16T04:07:13.859Z,14.25
2017-09-16T04:07:54.411Z,14.32
2017-09-16T04:08:34.968Z,14.15
2017-09-16T04:09:15.539Z,14.18
2017-09-16T04:09:56.076Z,14.03
2017-09-16T04:10:36.647Z,14.17
2017-09-16T04:11:17.208Z,14.14
2017-09-16T04:11:57.769Z,14.14
2017-09-16T04:12:38.339Z,14.15
2017-09-16T04:13:18.910Z,14.14
2017-09-16T04:13:59.466Z,14.17
2017-09-16T04:14:40.029Z,14.12
2017-09-16T04:15:20.604Z,14.22
2017-09-16T04:16:01.162Z,14.15
2017-09-16T04:16:41.720Z,14.12
2017-09-16T04:17:22.290Z,14.17
2017-09-16T04:18:02.855Z,14.15
2017-09-16T04:18:43.420Z,14.17
2017-09-16T04:19:23.967Z,14.18
2017-09-16T04:20:04.545Z,14.17
2017-09-16T04:20:45.086Z,14.2
2017-09-16T04:21:25.656Z,14.2
2017-09-16T04:22:06.233Z,14.18
2017-09-16T04:22:46.780Z,14.18
2017-09-16T04:23:27.369Z,14.12
2017-09-16T04:24:07.936Z,14.14
2017-09-16T04:24:48.522Z,14.17
2017-09-16T04:25:29.087Z,14.22
2017-09-16T04:26:09.649Z,14.18
2017-09-16T04:26:50.204Z,14.17
2017-09-16T04:27:30.760Z,14.06
2017-09-16T04:28:11.326Z,14.1
2017-09-16T04:28:51.891Z,14.06
2017-09-16T04:29:32.478Z,14.03
2017-09-16T04:30:13.045Z,14.1
2017-09-16T04:30:53.601Z,14
2017-09-16T04:31:34.164Z,13.89
2017-09-16T04:32:14.705Z,14
2017-09-16T04:32:55.258Z,14.07
2017-09-16T04:33:35.823Z,13.91
2017-09-16T04:34:16.368Z,14.04
2017-09-16T04:34:56.907Z,14.07
2017-09-16T04:35:37.477Z,14.14
2017-09-16T04:36:18.027Z,14.06
2017-09-16T04:36:58.586Z,14
2017-09-16T04:37:39.137Z,13.99
2017-09-16T04:38:19.713Z,14.09
2017-09-16T04:39:00.263Z,13.99
2017-09-16T04:39:40.819Z,14.04
2017-09-16T04:40:21.389Z,13.99
2017-09-16T04:41:01.947Z,14.06
2017-09-16T04:41:42.506Z,13.97
2017-09-16T04:42:23.080Z,13.91
2017-09-16T04:43:03.631Z,14.02
2017-09-16T04:43:44.186Z,13.97
2017-09-16T04:44:24.735Z,14.04
2017-09-16T04:45:05.287Z,14.02
2017-09-16T04:45:45.840Z,13.95
2017-09-16T04:46:26.387Z,13.92
2017-09-16T04:47:06.933Z,13.87
2017-09-16T04:47:47.476Z,13.88
2017-09-16T04:48:28.039Z,13.85
2017-09-16T04:49:08.579Z,13.87
2017-09-16T04:49:49.139Z,13.92
2017-09-16T04:50:29.703Z,14.03
2017-09-16T04:51:10.258Z,14.04
2017-09-16T04:51:50.825Z,14.02
2017-09-16T04:52:31.377Z,14
2017-09-16T04:53:11.960Z,13.91
2017-09-16T04:53:52.552Z,14.07
2017-09-16T04:54:33.094Z,14.1
2017-09-16T04:55:13.642Z,13.92
2017-09-16T04:55:54.205Z,14.06
2017-09-16T04:56:34.751Z,13.97
2017-09-16T04:57:15.336Z,13.99
2017-09-16T04:57:55.891Z,13.88
2017-09-16T04:58:36.449Z,13.87
2017-09-16T04:59:17.019Z,13.97
2017-09-16T04:59:57.588Z,13.99
2017-09-16T05:00:38.146Z,14.06
2017-09-16T05:01:18.721Z,14.1
2017-09-16T05:01:59.266Z,14.06
2017-09-16T05:02:39.818Z,14
2017-09-16T05:03:20.394Z,14.02
2017-09-16T05:04:01.009Z,13.97
2017-09-16T05:04:41.782Z,14.03
2017-09-16T05:05:22.387Z,14.04
2017-09-16T05:06:02.957Z,13.95
2017-09-16T05:06:43.516Z,14.03
2017-09-16T05:07:24.081Z,14.06
2017-09-16T05:08:04.662Z,14.12
2017-09-16T05:08:45.237Z,14.06
2017-09-16T05:09:25.801Z,14.07
2017-09-16T05:10:06.370Z,13.97
2017-09-16T05:10:46.944Z,14.09
2017-09-16T05:11:27.498Z,13.99
2017-09-16T05:12:08.087Z,14.03
2017-09-16T05:12:48.643Z,14.02
2017-09-16T05:13:29.220Z,14
2017-09-16T05:14:09.781Z,14.07
2017-09-16T05:14:50.328Z,14.03
2017-09-16T05:15:30.875Z,14.03
2017-09-16T05:16:11.446Z,14.02
2017-09-16T05:16:52.002Z,14.12
2017-09-16T05:17:32.569Z,14.03
2017-09-16T05:18:13.139Z,14.17
2017-09-16T05:18:53.699Z,14.12
2017-09-16T05:19:34.252Z,14.15
2017-09-16T05:20:14.819Z,14.21
2017-09-16T05:20:55.391Z,14.07
2017-09-16T05:21:35.940Z,14.14
2017-09-16T05:22:16.500Z,14.06
2017-09-16T05:22:57.070Z,14.02
2017-09-16T05:23:37.640Z,14.14
2017-09-16T05:24:18.200Z,14.07
2017-09-16T05:24:58.764Z,14.14
2017-09-16T05:25:39.305Z,14.17
2017-09-16T05:26:19.872Z,14.2
2017-09-16T05:27:00.435Z,14.15
2017-09-16T05:27:41.007Z,14.17
2017-09-16T05:28:21.562Z,14.18
2017-09-16T05:29:02.116Z,14.21
2017-09-16T05:29:42.684Z,14.27
2017-09-16T05:30:23.258Z,14.24
2017-09-16T05:31:03.832Z,14.28
2017-09-16T05:31:44.400Z,14.32
2017-09-16T05:32:25.005Z,14.18
2017-09-16T05:33:05.575Z,14.15
2017-09-16T05:33:46.139Z,14.25
2017-09-16T05:34:26.703Z,14.18
2017-09-16T05:35:07.263Z,14.14
2017-09-16T05:35:47.823Z,14.15
2017-09-16T05:36:28.379Z,14.17
2017-09-16T05:37:08.948Z,14.15
2017-09-16T05:37:49.522Z,14.22
2017-09-16T05:38:30.089Z,14.29
2017-09-16T05:39:10.660Z,14.21
2017-09-16T05:39:51.202Z,14.33
2017-09-16T05:40:31.722Z,14.25
2017-09-16T05:41:12.273Z,14.17
2017-09-16T05:41:52.825Z,14.24
2017-09-16T05:42:33.378Z,14.12
2017-09-16T05:43:13.913Z,14.28
2017-09-16T05:43:54.450Z,14.21
2017-09-16T05:44:34.993Z,14.15
2017-09-16T05:45:15.557Z,14.17
2017-09-16T05:45:56.103Z,14.24
2017-09-16T05:46:36.667Z,14.18
2017-09-16T05:47:17.249Z,14.18
2017-09-16T05:47:57.818Z,14.17
2017-09-16T05:48:38.377Z,14.24
2017-09-16T05:49:18.930Z,14.33
2017-09-16T05:49:59.489Z,14.25
2017-09-16T05:50:40.038Z,14.27
2017-09-16T05:51:20.611Z,14.24
2017-09-16T05:52:01.169Z,14.37
2017-09-16T05:52:41.722Z,14.22
2017-09-16T05:53:22.292Z,14.27
2017-09-16T05:54:02.836Z,14.29
2017-09-16T05:54:43.381Z,14.29
2017-09-16T05:55:23.962Z,14.25
2017-09-16T05:56:04.526Z,14.29
2017-09-16T05:56:45.100Z,14.28
2017-09-16T05:57:25.677Z,14.25
2017-09-16T05:58:06.223Z,14.35
2017-09-16T05:58:46.790Z,14.25
2017-09-16T05:59:27.355Z,14.37
2017-09-16T06:00:07.922Z,14.24
2017-09-16T06:00:48.507Z,14.28
2017-09-16T06:01:29.071Z,14.22
2017-09-16T06:02:09.632Z,14.27
2017-09-16T06:02:50.205Z,14.25
2017-09-16T06:03:30.827Z,14.21
2017-09-16T06:04:11.417Z,14.36
2017-09-16T06:04:51.951Z,14.33
2017-09-16T06:05:32.512Z,14.29
2017-09-16T06:06:13.079Z,14.35
2017-09-16T06:06:53.637Z,14.33
2017-09-16T06:07:34.205Z,14.29
2017-09-16T06:08:14.759Z,14.35
2017-09-16T06:08:55.302Z,14.24
2017-09-16T06:09:35.850Z,14.27
2017-09-16T06:10:16.412Z,14.24
2017-09-16T06:10:56.990Z,14.27
2017-09-16T06:11:37.539Z,14.25
2017-09-16T06:12:18.094Z,14.28
2017-09-16T06:12:58.649Z,14.29
2017-09-16T06:13:39.212Z,14.24
2017-09-16T06:14:19.771Z,14.28
2017-09-16T06:15:00.333Z,14.25
2017-09-16T06:15:40.892Z,14.39
2017-09-16T06:16:21.465Z,14.39
2017-09-16T06:17:02.035Z,14.45
2017-09-16T06:17:42.591Z,14.36
2017-09-16T06:18:23.148Z,14.4
2017-09-16T06:19:03.708Z,14.42
2017-09-16T06:19:44.264Z,14.42
2017-09-16T06:20:24.833Z,14.47
2017-09-16T06:21:05.408Z,14.55
2017-09-16T06:21:45.960Z,14.5
2017-09-16T06:22:26.515Z,14.57
2017-09-16T06:23:07.081Z,14.54
2017-09-16T06:23:47.622Z,14.58
2017-09-16T06:24:28.146Z,14.64
2017-09-16T06:25:08.712Z,14.62
2017-09-16T06:25:49.312Z,14.55
2017-09-16T06:26:29.875Z,14.58
2017-09-16T06:27:10.430Z,14.62
2017-09-16T06:27:50.994Z,14.6
2017-09-16T06:28:31.567Z,14.61
2017-09-16T06:29:12.250Z,14.57
2017-09-16T06:29:52.813Z,14.61
2017-09-16T06:30:33.380Z,14.54
2017-09-16T06:31:13.973Z,14.68
2017-09-16T06:31:54.528Z,14.64
2017-09-16T06:32:35.093Z,14.8
2017-09-16T06:33:15.655Z,14.65
2017-09-16T06:33:56.186Z,14.73
2017-09-16T06:34:36.757Z,14.81
2017-09-16T06:35:17.327Z,14.83
2017-09-16T06:35:57.904Z,14.95
2017-09-16T06:36:38.467Z,14.89
2017-09-16T06:37:19.034Z,15.02
2017-09-16T06:37:59.579Z,15.01
2017-09-16T06:38:40.166Z,15.07
2017-09-16T06:39:20.725Z,15.1
2017-09-16T06:40:01.288Z,15.09
2017-09-16T06:40:41.855Z,15.03
2017-09-16T06:41:22.416Z,15.09
2017-09-16T06:42:02.981Z,15.19
2017-09-16T06:42:43.609Z,15.17
2017-09-16T06:43:24.080Z,15.14
2017-09-16T06:44:04.645Z,15.07
2017-09-16T06:44:45.217Z,15.13
2017-09-16T06:45:25.760Z,15.2
2017-09-16T06:46:06.318Z,15.02
2017-09-16T06:46:46.877Z,15.09
2017-09-16T06:47:27.435Z,15.19
2017-09-16T06:48:08.020Z,15.21
2017-09-16T06:48:48.556Z,15.21
2017-09-16T06:49:29.122Z,15.21
2017-09-16T06:50:09.682Z,15.25
2017-09-16T06:50:50.244Z,15.19
2017-09-16T06:51:30.813Z,15.31
2017-09-16T06:52:11.388Z,15.36
2017-09-16T06:52:51.927Z,15.31
2017-09-16T06:53:32.490Z,15.36
2017-09-16T06:54:13.045Z,15.39
2017-09-16T06:54:53.604Z,15.39
2017-09-16T06:55:34.137Z,15.51
2017-09-16T06:56:14.727Z,15.6
2017-09-16T06:56:55.214Z,15.65
2017-09-16T06:57:35.738Z,15.83
2017-09-16T06:58:16.277Z,15.92
2017-09-16T06:58:56.807Z,16.01
2017-09-16T06:59:37.405Z,16.04
2017-09-16T07:00:17.966Z,16.07
2017-09-16T07:00:58.529Z,16.2
2017-09-16T07:01:39.079Z,16.21
2017-09-16T07:02:19.656Z,16.23
2017-09-16T07:03:00.229Z,16.28
2017-09-16T07:03:40.795Z,16.25
2017-09-16T07:04:21.341Z,16.31
2017-09-16T07:05:01.920Z,16.31
2017-09-16T07:05:42.492Z,16.41
2017-09-16T07:06:23.055Z,16.43
2017-09-16T07:07:03.620Z,16.31
2017-09-16T07:07:44.168Z,16.35
2017-09-16T07:08:24.750Z,16.21
2017-09-16T07:09:05.323Z,16.2
2017-09-16T07:09:45.877Z,15.96
2017-09-16T07:10:26.445Z,15.84
2017-09-16T07:11:07.018Z,15.87
2017-09-16T07:11:47.572Z,15.83
2017-09-16T07:12:28.135Z,15.68
2017-09-16T07:13:08.698Z,15.72
2017-09-16T07:13:49.256Z,15.49
2017-09-16T07:14:29.807Z,15.5
2017-09-16T07:15:10.402Z,15.51
2017-09-16T07:15:50.926Z,15.51
2017-09-16T07:16:31.486Z,15.5
2017-09-16T07:17:12.074Z,15.62
2017-09-16T07:17:52.619Z,15.68
2017-09-16T07:18:33.174Z,15.65
2017-09-16T07:19:13.747Z,15.71
2017-09-16T07:19:54.305Z,15.76
2017-09-16T07:20:34.862Z,15.84
2017-09-16T07:21:15.423Z,15.96
2017-09-16T07:21:55.979Z,16.01
2017-09-16T07:22:36.552Z,16.05
2017-09-16T07:23:17.095Z,16.07
2017-09-16T07:23:57.641Z,16.09
2017-09-16T07:24:38.201Z,16
2017-09-16T07:25:18.749Z,15.97
2017-09-16T07:25:59.331Z,15.96
2017-09-16T07:26:39.821Z,16.17
2017-09-16T07:27:20.389Z,16.08
2017-09-16T07:28:00.934Z,16.12
2017-09-16T07:28:41.502Z,16.25
2017-09-16T07:29:22.067Z,16.25
2017-09-16T07:30:02.613Z,16.3
2017-09-16T07:30:43.153Z,16.39
2017-09-16T07:31:23.715Z,16.39
2017-09-16T07:32:04.278Z,16.46
2017-09-16T07:32:44.840Z,16.46
2017-09-16T07:33:25.393Z,16.48
2017-09-16T07:34:05.939Z,16.39
2017-09-16T07:34:46.506Z,16.27
2017-09-16T07:35:27.075Z,16.25
2017-09-16T07:36:07.619Z,16.11
2017-09-16T07:36:48.200Z,15.94
2017-09-16T07:37:28.765Z,15.96
2017-09-16T07:38:09.317Z,15.96
2017-09-16T07:38:49.893Z,16.09
2017-09-16T07:39:30.414Z,16.11
2017-09-16T07:40:10.962Z,15.8
2017-09-16T07:40:51.546Z,15.96
2017-09-16T07:41:32.104Z,16
2017-09-16T07:42:12.617Z,16.05
2017-09-16T07:42:53.183Z,16.11
2017-09-16T07:43:33.780Z,16.2
2017-09-16T07:44:14.328Z,16.25
2017-09-16T07:44:54.900Z,16.28
2017-09-16T07:45:35.465Z,16.3
2017-09-16T07:46:16.051Z,16.31
2017-09-16T07:46:56.584Z,16.42
2017-09-16T07:47:37.163Z,16.52
2017-09-16T07:48:17.842Z,16.5
2017-09-16T07:48:58.383Z,16.57
2017-09-16T07:49:38.949Z,16.34
2017-09-16T07:50:19.513Z,16.35
2017-09-16T07:51:00.074Z,16.43
2017-09-16T07:51:40.631Z,16.49
2017-09-16T07:52:21.210Z,16.57
2017-09-16T07:53:01.754Z,16.6
2017-09-16T07:53:42.339Z,16.57
2017-09-16T07:54:22.966Z,16.64
2017-09-16T07:55:03.514Z,16.6
2017-09-16T07:55:44.052Z,16.6
2017-09-16T07:56:24.633Z,16.67
2017-09-16T07:57:05.196Z,16.76
2017-09-16T07:57:45.725Z,16.79
2017-09-16T07:58:26.282Z,16.68
2017-09-16T07:59:06.835Z,16.76
2017-09-16T07:59:47.397Z,16.79
2017-09-16T08:00:27.945Z,16.7
2017-09-16T08:01:08.542Z,16.83
2017-09-16T08:01:49.088Z,16.79
2017-09-16T08:02:29.657Z,16.83
2017-09-16T08:03:10.219Z,16.85
2017-09-16T08:03:50.793Z,16.83
2017-09-16T08:04:31.381Z,16.89
2017-09-16T08:05:11.950Z,16.81
2017-09-16T08:05:52.455Z,16.85
2017-09-16T08:06:33.017Z,16.82
2017-09-16T08:07:13.548Z,16.82
2017-09-16T08:07:54.113Z,16.93
2017-09-16T08:08:34.664Z,16.97
2017-09-16T08:09:15.238Z,17.01
2017-09-16T08:09:55.824Z,16.93
2017-09-16T08:10:36.364Z,16.94
2017-09-16T08:11:16.949Z,16.98
2017-09-16T08:11:57.536Z,17.04
2017-09-16T08:12:38.154Z,16.98
2017-09-16T08:13:18.708Z,17
2017-09-16T08:13:59.370Z,17.01
2017-09-16T08:14:39.933Z,17.06
2017-09-16T08:15:20.651Z,17.12
2017-09-16T08:16:01.225Z,17.23
2017-09-16T08:16:41.782Z,17.21
2017-09-16T08:17:22.333Z,17.22
2017-09-16T08:18:02.940Z,17.23
2017-09-16T08:18:43.552Z,17.26
2017-09-16T08:19:24.235Z,17.23
2017-09-16T08:20:04.668Z,17.18
2017-09-16T08:20:45.222Z,17.25
2017-09-16T08:21:25.742Z,17.21
2017-09-16T08:22:06.302Z,17.08
2017-09-16T08:22:46.859Z,17.22
2017-09-16T08:23:27.418Z,17.07
2017-09-16T08:24:08.144Z,17.15
2017-09-16T08:24:48.665Z,17.04
2017-09-16T08:25:29.257Z,17.08
2017-09-16T08:26:09.803Z,17.07
2017-09-16T08:26:50.349Z,17.03
2017-09-16T08:27:30.899Z,17.08
2017-09-16T08:28:11.444Z,17.18
2017-09-16T08:28:52.007Z,17.21
2017-09-16T08:29:32.596Z,17.11
2017-09-16T08:30:13.117Z,16.82
2017-09-16T08:30:53.792Z,16.63
2017-09-16T08:31:34.322Z,16.75
2017-09-16T08:32:14.921Z,16.76
2017-09-16T08:32:55.419Z,16.83
2017-09-16T08:33:35.996Z,16.93
2017-09-16T08:34:16.505Z,16.98
2017-09-16T08:34:57.064Z,17
2017-09-16T08:35:37.646Z,17.03
2017-09-16T08:36:18.200Z,17
2017-09-16T08:36:58.776Z,16.97
2017-09-16T08:37:39.455Z,17.11
2017-09-16T08:38:20.021Z,17.16
2017-09-16T08:39:00.531Z,17.12
2017-09-16T08:39:41.086Z,17.08
2017-09-16T08:40:21.638Z,17.14
2017-09-16T08:41:02.188Z,17.07
2017-09-16T08:41:42.756Z,17.14
2017-09-16T08:42:23.299Z,17.21
2017-09-16T08:43:03.873Z,17.22
2017-09-16T08:43:44.565Z,17.26
2017-09-16T08:44:24.964Z,17.19